Time;durP1;ratioP1;P1;durP2;ratioP2;P2;SDS_P1;SDS_P2;PMS_P1;PMS_P2;Temp;Humidity;BMP_temperature;BMP_pressure;BME280_temperature;BME280_humidity;BME280_pressure;Samples;Min_cycle;Max_cycle;Signal;HPM_P1;HPM_P2
2023/01/13 00:00:53;;;;;;;4.88;2.40;;;16.50;59.20;;;;;;5040792;28;20029;-66
2023/01/13 00:03:19;;;;;;;3.88;2.17;;;16.50;59.20;;;;;;5040835;28;20220;-67
2023/01/13 00:05:45;;;;;;;4.07;2.17;;;16.40;59.30;;;;;;5040661;28;20349;-67
2023/01/13 00:08:11;;;;;;;2.75;1.90;;;16.40;59.50;;;;;;5040643;28;20033;-65
2023/01/13 00:10:36;;;;;;;8.88;2.70;;;16.30;59.50;;;;;;5040569;28;20039;-65
2023/01/13 00:13:03;;;;;;;5.70;2.00;;;16.30;59.60;;;;;;5040475;28;20037;-67
2023/01/13 00:15:30;;;;;;;4.72;2.40;;;16.30;59.70;;;;;;5040430;28;20063;-66
2023/01/13 00:17:55;;;;;;;4.00;2.10;;;16.20;59.70;;;;;;5040402;28;20021;-66
2023/01/13 00:20:21;;;;;;;4.47;2.28;;;16.20;59.80;;;;;;5040390;28;20032;-65
2023/01/13 00:22:47;;;;;;;6.05;2.67;;;16.10;59.80;;;;;;5040414;28;20037;-66
2023/01/13 00:25:13;;;;;;;2.80;2.30;;;16.10;59.90;;;;;;5040352;28;20025;-66
2023/01/13 00:27:38;;;;;;;4.57;2.33;;;16.10;59.90;;;;;;5040239;28;20029;-67
2023/01/13 00:30:06;;;;;;;3.40;1.52;;;16.10;60.10;;;;;;5040168;28;20091;-67
2023/01/13 00:32:32;;;;;;;3.67;1.55;;;16.10;60.10;;;;;;5040345;28;20037;-67
2023/01/13 00:34:58;;;;;;;5.07;2.35;;;16.10;60.20;;;;;;5040338;28;20021;-67
2023/01/13 00:37:24;;;;;;;4.47;2.22;;;16.10;60.30;;;;;;5040300;28;20029;-68
2023/01/13 00:39:51;;;;;;;4.13;2.22;;;16.10;60.30;;;;;;5055589;28;20024;-67
2023/01/13 00:45:02;;;;;;;3.08;2.67;;;16.10;60.20;;;;;;5040062;28;20036;-67
2023/01/13 00:47:28;;;;;;;5.35;2.10;;;16.10;60.30;;;;;;5040059;28;20025;-68
2023/01/13 00:49:54;;;;;;;3.67;1.73;;;16.00;60.20;;;;;;5040096;28;20052;-67
2023/01/13 00:52:20;;;;;;;4.60;1.88;;;16.00;60.20;;;;;;5055306;28;20071;-67
2023/01/13 00:54:46;;;;;;;4.05;1.90;;;16.00;60.30;;;;;;5040011;28;20021;-67
2023/01/13 00:57:11;;;;;;;3.08;1.90;;;16.00;60.30;;;;;;5039994;28;20029;-68
2023/01/13 00:59:37;;;;;;;5.45;2.17;;;16.10;60.40;;;;;;5039977;28;20048;-67
2023/01/13 01:02:03;;;;;;;5.10;1.70;;;16.20;60.40;;;;;;5040037;28;20096;-67
2023/01/13 01:04:29;;;;;;;4.72;1.98;;;16.20;60.30;;;;;;5040113;28;20079;-67
2023/01/13 01:06:55;;;;;;;3.78;2.13;;;16.30;60.20;;;;;;5040005;28;20028;-67
2023/01/13 01:09:21;;;;;;;7.00;2.17;;;16.40;60.00;;;;;;5039872;28;20022;-67
2023/01/13 01:11:47;;;;;;;3.67;2.00;;;16.40;59.80;;;;;;5039768;28;20033;-67
2023/01/13 01:14:13;;;;;;;2.28;1.75;;;16.50;59.60;;;;;;5039883;28;20076;-66
2023/01/13 01:16:40;;;;;;;3.00;1.77;;;16.50;59.60;;;;;;5039873;28;20542;-67
2023/01/13 01:19:06;;;;;;;3.85;1.95;;;16.60;59.40;;;;;;5043421;28;20021;-67
2023/01/13 01:21:33;;;;;;;5.05;2.20;;;16.60;59.30;;;;;;5043665;28;20013;-67
2023/01/13 01:24:00;;;;;;;2.10;1.35;;;16.50;59.30;;;;;;5058843;28;20025;-69
2023/01/13 01:26:30;;;;;;;4.68;2.15;;;16.50;59.40;;;;;;5043682;28;20025;-68
2023/01/13 01:28:56;;;;;;;3.42;2.00;;;16.40;59.40;;;;;;5043550;28;20093;-67
2023/01/13 01:31:25;;;;;;;3.20;1.88;;;16.30;59.50;;;;;;5043275;28;20044;-68
2023/01/13 01:33:52;;;;;;;5.30;2.42;;;16.30;59.60;;;;;;5043319;28;20029;-68
2023/01/13 01:36:19;;;;;;;3.22;2.05;;;16.30;59.70;;;;;;5043284;28;20037;-67
2023/01/13 01:38:46;;;;;;;3.25;2.05;;;16.20;59.70;;;;;;5058486;28;20104;-67
2023/01/13 01:41:15;;;;;;;4.55;1.80;;;16.20;59.90;;;;;;5043041;28;20254;-67
2023/01/13 01:44:02;;;;;;;4.70;2.17;;;16.10;59.90;;;;;;5043121;28;20026;-67
2023/01/13 01:46:38;;;;;;;3.00;2.03;;;16.10;59.90;;;;;;5058411;28;20035;-66
2023/01/13 01:49:06;;;;;;;4.25;2.33;;;16.10;59.90;;;;;;5043107;28;20052;-65
2023/01/13 01:51:37;;;;;;;4.00;1.73;;;16.10;60.10;;;;;;5043026;28;20081;-66
2023/01/13 01:54:08;;;;;;;3.20;1.70;;;16.00;60.10;;;;;;5042924;28;20034;-67
2023/01/13 01:56:35;;;;;;;6.22;2.47;;;16.00;60.20;;;;;;5042948;28;20057;-66
2023/01/13 01:59:00;;;;;;;4.20;2.08;;;16.00;60.20;;;;;;5042812;28;20378;-65
2023/01/13 02:01:27;;;;;;;2.53;1.48;;;16.00;60.10;;;;;;5042754;28;20089;-68
2023/01/13 02:04:17;;;;;;;4.53;1.80;;;16.00;60.20;;;;;;5042707;28;20071;-66
2023/01/13 02:06:45;;;;;;;2.83;2.17;;;16.00;60.20;;;;;;5042310;28;20045;-65
2023/01/13 02:09:11;;;;;;;6.85;2.67;;;16.00;60.30;;;;;;5042599;28;20092;-68
2023/01/13 02:14:25;;;;;;;3.17;1.88;;;16.00;60.90;;;;;;5042521;28;20075;-67
2023/01/13 02:17:11;;;;;;;;;;;16.00;60.40;;;;;;5041558;28;20352;-66
2023/01/13 02:19:57;;;;;;;2.67;1.83;;;16.10;60.40;;;;;;5042305;28;19901;-67
2023/01/13 02:22:34;;;;;;;3.70;1.70;;;16.10;60.40;;;;;;5042401;28;20245;-67
2023/01/13 02:25:35;;;;;;;3.25;1.98;;;16.20;60.30;;;;;;5042355;28;20033;-67
2023/01/13 02:31:40;;;;;;;2.85;1.80;;;16.30;60.00;;;;;;5039150;28;20124;-68
2023/01/13 02:31:43;;;;;;;4.82;1.73;;;16.40;59.90;;;;;;5041932;28;20046;-67
2023/01/13 02:34:12;;;;;;;2.88;2.03;;;16.50;59.70;;;;;;5042146;28;20049;-67
2023/01/13 02:37:02;;;;;;;2.78;1.63;;;16.50;59.50;;;;;;5042113;28;20257;-67
2023/01/13 02:39:54;;;;;;;2.95;1.60;;;16.50;59.40;;;;;;5042140;28;20247;-67
2023/01/13 02:45:26;;;;;;;6.07;2.25;;;16.50;59.30;;;;;;5041965;28;20107;-66
2023/01/13 02:47:54;;;;;;;2.53;1.60;;;16.40;59.40;;;;;;5042000;28;20040;-67
2023/01/13 02:50:27;;;;;;;;;;;16.40;59.50;;;;;;5042264;28;20217;-66
2023/01/13 02:52:58;;;;;;;3.90;1.83;;;16.30;59.60;;;;;;5041814;28;19913;-66
2023/01/13 02:55:51;;;;;;;3.13;1.83;;;16.20;59.70;;;;;;5041796;28;20242;-66
2023/01/13 02:58:23;;;;;;;3.50;2.08;;;16.20;59.80;;;;;;5039449;28;20257;-66
2023/01/13 03:00:49;;;;;;;2.72;1.33;;;16.20;59.90;;;;;;5041695;28;20024;-66
2023/01/13 03:03:14;;;;;;;3.08;1.77;;;16.10;59.90;;;;;;5041634;28;20026;-67
2023/01/13 03:05:43;;;;;;;2.92;1.55;;;16.10;59.90;;;;;;5041630;28;20221;-68
2023/01/13 03:08:19;;;;;;;;;;;16.10;60.00;;;;;;5041960;28;20048;-66
2023/01/13 03:11:07;;;;;;;6.07;1.55;;;16.00;59.90;;;;;;5041632;28;20129;-65
2023/01/13 03:13:41;;;;;;;4.20;1.58;;;16.00;60.10;;;;;;5041457;28;20055;-66
2023/01/13 03:16:28;;;;;;;4.18;2.00;;;16.00;59.90;;;;;;5040152;28;20356;-67
2023/01/13 03:19:14;;;;;;;3.03;1.67;;;16.00;60.00;;;;;;5041403;28;20017;-67
2023/01/13 03:21:43;;;;;;;3.95;1.80;;;16.00;60.00;;;;;;5056719;28;20021;-66
2023/01/13 03:24:16;;;;;;;;;;;16.00;60.20;;;;;;5041763;28;20022;-66
2023/01/13 03:26:55;;;;;;;3.25;1.70;;;16.00;60.20;;;;;;5041516;28;20144;-67
2023/01/13 03:29:31;;;;;;;5.43;1.75;;;16.00;60.30;;;;;;5041034;28;20088;-66
2023/01/13 03:32:20;;;;;;;2.70;1.50;;;16.00;60.30;;;;;;5041143;28;20041;-65
2023/01/13 03:34:50;;;;;;;3.10;1.67;;;16.10;60.40;;;;;;5012950;28;20440;-65
2023/01/13 03:37:20;;;;;;;5.32;1.80;;;16.20;60.20;;;;;;5041108;28;20029;-65
2023/01/13 03:39:53;;;;;;;3.05;1.50;;;16.30;60.10;;;;;;5040395;28;20029;-67
2023/01/13 03:42:23;;;;;;;3.53;1.73;;;16.40;59.90;;;;;;5041009;28;20049;-67
2023/01/13 03:45:01;;;;;;;2.17;1.33;;;16.50;59.70;;;;;;5041041;28;20029;-66
2023/01/13 03:47:31;;;;;;;4.00;1.43;;;16.50;60.20;;;;;;5041109;28;20345;-66
2023/01/13 03:50:25;;;;;;;3.38;1.40;;;16.50;59.50;;;;;;5041074;28;20096;-66
2023/01/13 03:52:58;;;;;;;3.90;1.65;;;16.50;59.40;;;;;;5040860;28;20034;-65
2023/01/13 03:55:39;;;;;;;3.55;1.92;;;16.40;59.40;;;;;;5040928;28;20344;-67
2023/01/13 03:58:34;;;;;;;3.35;1.83;;;16.40;59.50;;;;;;5040770;28;20028;-66
2023/01/13 04:01:13;;;;;;;3.53;1.70;;;16.30;59.60;;;;;;5038734;28;20025;-68
2023/01/13 04:04:06;;;;;;;5.25;2.35;;;16.30;59.60;;;;;;5040639;28;20213;-67
2023/01/13 04:07:08;;;;;;;3.22;2.17;;;16.20;59.60;;;;;;5040724;28;20056;-65
2023/01/13 04:09:52;;;;;;;5.85;2.17;;;16.20;59.70;;;;;;5040801;28;20267;-66
2023/01/13 04:13:09;;;;;;;2.85;1.77;;;16.10;59.70;;;;;;5040518;28;20041;-66
2023/01/13 04:15:38;;;;;;;2.72;1.95;;;16.10;59.90;;;;;;5039179;28;20075;-65
2023/01/13 04:18:26;;;;;;;2.28;1.67;;;16.10;59.90;;;;;;5040523;28;20021;-66
2023/01/13 04:20:55;;;;;;;4.35;1.85;;;16.00;60.00;;;;;;5040465;28;20030;-67
2023/01/13 04:23:21;;;;;;;3.28;1.77;;;16.00;59.90;;;;;;5055656;28;20025;-67
2023/01/13 04:25:48;;;;;;;3.42;1.98;;;16.00;60.00;;;;;;5040244;28;20033;-66
2023/01/13 04:28:15;;;;;;;2.97;1.85;;;16.00;59.90;;;;;;5040315;28;20064;-66
2023/01/13 04:30:41;;;;;;;3.15;1.90;;;16.00;60.00;;;;;;5040140;28;20049;-67
2023/01/13 04:33:08;;;;;;;3.20;1.52;;;15.90;60.00;;;;;;5040175;28;20370;-67
2023/01/13 04:35:34;;;;;;;2.42;1.63;;;15.90;60.00;;;;;;5040233;28;20033;-66
2023/01/13 04:38:06;;;;;;;3.00;1.77;;;15.90;60.00;;;;;;5040189;28;20021;-67
2023/01/13 04:40:32;;;;;;;3.60;1.50;;;16.00;60.10;;;;;;5040203;28;20037;-67
2023/01/13 04:42:57;;;;;;;4.10;1.58;;;16.00;60.20;;;;;;5040172;28;20029;-67
2023/01/13 04:45:23;;;;;;;3.50;2.00;;;16.10;60.10;;;;;;5040186;28;20033;-66
2023/01/13 04:47:49;;;;;;;3.55;2.33;;;16.20;59.90;;;;;;5040223;28;20037;-67
2023/01/13 04:50:18;;;;;;;2.45;1.75;;;16.30;59.80;;;;;;5040230;28;20344;-67
2023/01/13 04:52:46;;;;;;;3.25;1.65;;;16.30;59.50;;;;;;5041409;28;20563;-67
2023/01/13 04:55:12;;;;;;;2.70;1.63;;;16.40;59.40;;;;;;5044109;28;20033;-67
2023/01/13 04:57:38;;;;;;;6.38;2.67;;;16.40;59.30;;;;;;5042910;28;20075;-66
2023/01/13 05:00:10;;;;;;;3.13;1.80;;;16.40;59.20;;;;;;5044237;28;20029;-65
2023/01/13 05:02:36;;;;;;;4.07;2.03;;;16.50;59.30;;;;;;5044090;28;20025;-68
2023/01/13 05:05:03;;;;;;;3.60;1.90;;;16.50;59.10;;;;;;5043989;28;20032;-67
2023/01/13 05:07:28;;;;;;;2.92;1.92;;;16.50;59.00;;;;;;5043876;28;20096;-67
2023/01/13 05:09:54;;;;;;;4.10;1.73;;;16.40;58.90;;;;;;5044029;28;20040;-66
2023/01/13 05:17:49;;;;;;;2.47;1.48;;;16.20;59.20;;;;;;5043736;28;20025;-67
2023/01/13 05:20:17;;;;;;;4.40;2.00;;;16.20;59.40;;;;;;5043689;28;20220;-67
2023/01/13 05:25:28;;;;;;;3.25;1.80;;;16.10;59.50;;;;;;5043500;28;20063;-65
2023/01/13 05:27:57;;;;;;;2.78;2.15;;;16.10;59.60;;;;;;5043548;28;20029;-65
2023/01/13 05:30:29;;;;;;;3.72;1.75;;;16.10;59.80;;;;;;5042648;28;20054;-66
2023/01/13 05:32:55;;;;;;;2.88;1.73;;;16.00;59.70;;;;;;5042157;28;20321;-66
2023/01/13 05:35:21;;;;;;;2.10;1.25;;;16.00;59.70;;;;;;5042187;28;20336;-67
2023/01/13 05:37:47;;;;;;;3.45;1.75;;;16.00;60.00;;;;;;5042095;28;20022;-66
2023/01/13 05:43:21;;;;;;;3.28;1.83;;;16.00;60.00;;;;;;5042025;28;20241;-65
2023/01/13 05:46:00;;;;;;;2.47;1.80;;;16.00;60.00;;;;;;5041896;28;20029;-66
2023/01/13 05:48:29;;;;;;;2.28;1.88;;;16.00;60.10;;;;;;5042033;28;20049;-66
2023/01/13 05:50:55;;;;;;;4.38;2.33;;;16.00;60.10;;;;;;5041956;28;20100;-65
2023/01/13 05:53:23;;;;;;;3.40;2.03;;;16.00;60.10;;;;;;5041790;28;20244;-66
2023/01/13 05:55:50;;;;;;;4.32;2.00;;;15.90;60.00;;;;;;5041812;28;20092;-66
2023/01/13 05:58:18;;;;;;;2.85;1.90;;;15.90;60.00;;;;;;5041859;28;20061;-66
2023/01/13 06:00:44;;;;;;;3.63;1.92;;;15.90;60.00;;;;;;5042038;28;20021;-67
2023/01/13 06:03:10;;;;;;;3.90;2.15;;;16.00;60.00;;;;;;5041346;28;20033;-66
2023/01/13 06:05:37;;;;;;;2.40;1.67;;;16.00;60.10;;;;;;5041665;28;20017;-66
2023/01/13 06:08:05;;;;;;;3.78;1.80;;;16.00;60.00;;;;;;5041663;28;20040;-66
2023/01/13 06:10:31;;;;;;;3.67;2.42;;;16.10;60.00;;;;;;5041682;28;20036;-67
2023/01/13 06:12:57;;;;;;;3.00;2.42;;;16.20;59.80;;;;;;5041498;28;20427;-66
2023/01/13 06:15:24;;;;;;;3.30;2.10;;;16.30;59.70;;;;;;5041546;28;20347;-66
2023/01/13 06:17:50;;;;;;;2.55;1.80;;;16.30;59.50;;;;;;5041485;28;20031;-67
2023/01/13 06:20:17;;;;;;;4.57;2.08;;;16.30;59.40;;;;;;5041526;28;20029;-65
2023/01/13 06:22:46;;;;;;;3.53;1.70;;;16.40;59.40;;;;;;5041554;28;20030;-67
2023/01/13 06:25:24;;;;;;;4.45;2.58;;;16.40;59.20;;;;;;5041438;28;20037;-67
2023/01/13 06:27:52;;;;;;;3.35;1.85;;;16.40;59.10;;;;;;5041429;28;20088;-67
2023/01/13 06:30:18;;;;;;;2.67;2.03;;;16.40;59.10;;;;;;4996577;28;1294729;-67
2023/01/13 06:32:54;;;;;;;2.10;1.85;;;16.30;59.20;;;;;;5042296;28;20221;-67
2023/01/13 06:35:25;;;;;;;4.22;2.08;;;16.20;59.20;;;;;;5042343;28;20535;-65
2023/01/13 06:37:54;;;;;;;3.38;1.75;;;16.20;59.40;;;;;;5057586;28;20253;-67
2023/01/13 06:40:20;;;;;;;3.20;1.73;;;16.10;59.40;;;;;;5042253;28;20108;-67
2023/01/13 06:45:30;;;;;;;3.28;2.10;;;16.10;59.60;;;;;;5042063;28;20183;-66
2023/01/13 06:47:58;;;;;;;2.10;1.60;;;16.00;59.70;;;;;;5042127;28;20041;-67
2023/01/13 06:50:24;;;;;;;2.40;1.87;;;16.00;59.80;;;;;;5057379;28;20313;-67
2023/01/13 06:52:50;;;;;;;2.20;1.83;;;16.00;59.80;;;;;;5041859;28;20029;-66
2023/01/13 06:55:16;;;;;;;2.47;2.08;;;15.90;59.90;;;;;;5041932;28;20447;-67
2023/01/13 06:57:53;;;;;;;4.28;2.03;;;15.90;60.00;;;;;;5041854;28;20025;-66
2023/01/13 07:00:20;;;;;;;4.20;1.83;;;15.90;60.00;;;;;;5041854;28;20021;-66
2023/01/13 07:02:46;;;;;;;3.83;2.10;;;15.90;60.00;;;;;;5041821;28;20025;-66
2023/01/13 07:05:12;;;;;;;3.42;1.90;;;15.90;60.10;;;;;;5041775;28;20029;-66
2023/01/13 07:07:38;;;;;;;2.45;1.80;;;15.90;60.10;;;;;;5041726;28;20033;-66
2023/01/13 07:10:07;;;;;;;2.22;1.60;;;15.90;60.10;;;;;;5041710;28;20021;-67
2023/01/13 07:15:17;;;;;;;2.92;1.55;;;15.90;60.10;;;;;;5041606;28;20029;-66
2023/01/13 07:15:18;;;;;;;2.10;1.90;;;15.90;60.10;;;;;;5040846;28;20064;-66
2023/01/13 07:17:44;;;;;;;3.47;2.00;;;15.90;60.10;;;;;;5041560;28;20017;-66
2023/01/13 07:20:10;;;;;;;3.03;1.90;;;15.90;60.00;;;;;;5041552;28;20024;-66
2023/01/13 07:22:36;;;;;;;4.25;1.73;;;15.90;60.10;;;;;;5041495;28;20425;-65
2023/01/13 07:25:02;;;;;;;4.22;2.25;;;16.00;60.20;;;;;;5041411;28;20029;-66
2023/01/13 07:27:28;;;;;;;2.38;1.75;;;16.00;60.10;;;;;;5041405;28;20029;-67
2023/01/13 07:29:54;;;;;;;2.35;1.55;;;16.10;60.10;;;;;;5041242;28;20087;-67
2023/01/13 07:32:20;;;;;;;3.60;1.90;;;16.20;60.00;;;;;;5041307;28;20033;-66
2023/01/13 07:34:46;;;;;;;3.88;2.28;;;16.20;59.80;;;;;;5041368;28;20252;-66
2023/01/13 07:37:11;;;;;;;3.47;2.10;;;16.30;59.60;;;;;;5041360;28;20081;-65
2023/01/13 07:39:37;;;;;;;2.42;1.63;;;16.40;59.40;;;;;;5041268;28;20067;-64
2023/01/13 07:44:47;;;;;;;2.58;2.17;;;16.40;59.10;;;;;;5041196;28;20021;-66
2023/01/13 07:47:13;;;;;;;2.45;1.80;;;16.50;59.00;;;;;;5041120;28;20021;-66
2023/01/13 07:49:39;;;;;;;4.63;2.53;;;16.40;58.90;;;;;;5041064;28;20041;-67
2023/01/13 07:52:05;;;;;;;2.83;2.10;;;16.40;58.90;;;;;;5040868;28;20010;-67
2023/01/13 07:54:30;;;;;;;2.85;1.90;;;16.40;59.00;;;;;;5040866;28;20024;-66
2023/01/13 07:56:56;;;;;;;2.75;1.95;;;16.30;59.10;;;;;;5040901;28;20225;-68
2023/01/13 07:59:22;;;;;;;3.55;2.03;;;16.30;59.20;;;;;;5040867;28;20080;-66
2023/01/13 08:01:48;;;;;;;2.10;1.73;;;16.20;59.30;;;;;;5040827;28;20320;-67
2023/01/13 08:04:13;;;;;;;2.78;1.73;;;16.20;59.30;;;;;;5040789;28;20021;-67
2023/01/13 08:06:40;;;;;;;3.30;1.90;;;16.10;59.40;;;;;;5040714;28;20021;-66
2023/01/13 08:09:06;;;;;;;4.32;1.83;;;16.10;59.50;;;;;;5040738;28;20301;-68
2023/01/13 08:11:32;;;;;;;2.70;2.33;;;16.10;59.60;;;;;;5040693;28;20040;-66
2023/01/13 08:13:57;;;;;;;2.47;1.92;;;16.00;59.60;;;;;;5040597;28;20026;-67
2023/01/13 08:16:23;;;;;;;2.03;1.42;;;16.00;59.60;;;;;;5040662;28;20099;-66
2023/01/13 08:18:49;;;;;;;2.97;1.90;;;16.00;59.70;;;;;;5040536;28;20044;-66
2023/01/13 08:21:15;;;;;;;2.42;2.05;;;16.00;59.60;;;;;;5040517;28;20018;-67
2023/01/13 08:23:43;;;;;;;1.92;1.50;;;16.00;59.70;;;;;;5040455;28;20327;-67
2023/01/13 08:26:11;;;;;;;2.38;1.65;;;15.90;59.60;;;;;;5040300;28;20339;-66
2023/01/13 08:28:39;;;;;;;2.90;2.00;;;15.90;59.80;;;;;;5040470;28;20079;-66
2023/01/13 08:31:07;;;;;;;2.67;1.92;;;15.90;59.80;;;;;;5040359;28;20081;-68
2023/01/13 08:33:33;;;;;;;2.17;1.75;;;16.00;59.80;;;;;;5040593;28;20095;-67
2023/01/13 08:36:05;;;;;;;2.65;1.92;;;15.90;59.70;;;;;;5040499;28;20013;-66
2023/01/13 08:38:33;;;;;;;3.45;1.70;;;16.00;59.70;;;;;;5040563;28;20060;-67
2023/01/13 08:40:59;;;;;;;2.35;1.83;;;16.00;59.70;;;;;;5040365;28;20028;-67
2023/01/13 08:43:25;;;;;;;2.60;1.77;;;16.00;59.70;;;;;;5040338;28;20025;-66
2023/01/13 08:46:03;;;;;;;2.50;1.70;;;16.00;59.70;;;;;;5040382;28;20072;-66
2023/01/13 08:48:29;;;;;;;2.08;1.38;;;16.10;59.80;;;;;;5040369;28;20021;-67
2023/01/13 08:51:02;;;;;;;3.20;1.65;;;16.10;59.70;;;;;;5040332;28;20135;-67
2023/01/13 08:53:27;;;;;;;3.20;1.88;;;16.20;59.80;;;;;;5040313;28;20340;-64
2023/01/13 08:55:53;;;;;;;3.10;1.60;;;16.30;59.60;;;;;;5040455;28;20034;-66
2023/01/13 08:58:19;;;;;;;3.15;1.67;;;16.40;59.40;;;;;;5040421;28;20218;-65
2023/01/13 09:00:45;;;;;;;6.60;1.92;;;16.50;59.20;;;;;;5040285;28;20029;-66
2023/01/13 09:03:11;;;;;;;2.80;1.83;;;16.60;59.00;;;;;;5040208;28;20037;-67
2023/01/13 09:05:37;;;;;;;2.47;1.70;;;16.70;58.80;;;;;;5040176;28;20021;-67
2023/01/13 09:08:03;;;;;;;2.53;1.92;;;16.70;58.50;;;;;;5040197;28;20096;-66
2023/01/13 09:10:29;;;;;;;2.17;1.60;;;16.80;58.40;;;;;;5055472;28;20029;-67
2023/01/13 09:13:13;;;;;;;2.05;1.67;;;16.80;58.30;;;;;;5055374;28;20044;-67
2023/01/13 09:15:44;;;;;;;2.50;1.67;;;16.80;58.30;;;;;;5040089;28;20486;-67
2023/01/13 09:18:10;;;;;;;2.53;1.60;;;16.70;58.20;;;;;;5055482;28;20041;-65
2023/01/13 09:20:36;;;;;;;1.90;1.65;;;16.70;58.40;;;;;;5040044;28;20020;-67
2023/01/13 09:23:03;;;;;;;2.42;1.80;;;16.60;58.50;;;;;;5039973;28;20021;-66
2023/01/13 09:25:29;;;;;;;2.22;1.52;;;16.60;58.60;;;;;;5040025;28;20095;-66
2023/01/13 09:27:55;;;;;;;2.80;1.80;;;16.50;58.70;;;;;;5040013;28;20084;-67
2023/01/13 09:30:21;;;;;;;1.70;1.50;;;16.50;58.80;;;;;;5039835;28;20037;-67
2023/01/13 09:32:47;;;;;;;2.33;1.50;;;16.40;58.80;;;;;;5039921;28;20053;-67
2023/01/13 09:35:13;;;;;;;2.50;1.70;;;16.40;58.90;;;;;;5039990;28;20056;-67
2023/01/13 09:37:40;;;;;;;1.67;1.40;;;16.40;58.90;;;;;;5039923;28;20051;-66
2023/01/13 09:40:14;;;;;;;2.42;1.60;;;16.40;59.00;;;;;;5043229;28;20202;-65
2023/01/13 09:45:41;;;;;;;3.35;1.80;;;16.30;59.00;;;;;;5043533;28;20044;-66
2023/01/13 09:48:50;;;;;;;2.88;1.70;;;16.30;59.10;;;;;;5053622;28;20032;-65
2023/01/13 09:51:56;;;;;;;5.45;1.88;;;16.30;59.10;;;;;;5054831;28;20056;-66
2023/01/13 09:54:40;;;;;;;7.15;2.60;;;16.30;59.00;;;;;;5021186;28;20319;-68
2023/01/13 09:57:17;;;;;;;8.05;2.42;;;16.30;59.00;;;;;;5042491;28;20033;-66
2023/01/13 09:59:43;;;;;;;8.82;2.47;;;16.30;59.10;;;;;;5048061;28;20021;-67
2023/01/13 10:02:18;;;;;;;13.23;2.00;;;16.30;59.10;;;;;;5043253;28;20017;-68
2023/01/13 10:05:05;;;;;;;4.85;1.63;;;16.40;59.20;;;;;;5043213;28;20021;-68
2023/01/13 10:07:36;;;;;;;4.55;2.20;;;16.50;59.10;;;;;;5043236;28;20205;-68
2023/01/13 10:10:03;;;;;;;5.78;2.40;;;16.60;58.80;;;;;;5058537;28;20026;-67
2023/01/13 10:15:18;;;;;;;5.05;1.90;;;16.90;58.40;;;;;;5047535;28;20028;-68
2023/01/13 10:17:54;;;;;;;2.88;2.00;;;17.00;58.10;;;;;;5063023;28;20020;-69
2023/01/13 10:20:23;;;;;;;3.42;2.08;;;17.00;57.90;;;;;;5062853;28;20236;-66
2023/01/13 10:23:15;;;;;;;5.05;1.65;;;17.10;57.90;;;;;;5042889;28;20018;-68
2023/01/13 10:25:49;;;;;;;2.67;2.00;;;17.20;58.00;;;;;;5042979;28;20367;-67
2023/01/13 10:28:18;;;;;;;3.80;1.90;;;17.30;57.90;;;;;;5048167;28;20332;-67
2023/01/13 10:30:46;;;;;;;2.10;1.77;;;17.30;57.80;;;;;;5049812;28;20040;-67
2023/01/13 10:33:19;;;;;;;3.03;1.70;;;17.30;57.50;;;;;;5062659;28;20068;-68
2023/01/13 10:35:58;;;;;;;2.20;1.23;;;17.40;57.40;;;;;;5057869;28;20037;-68
2023/01/13 10:38:47;;;;;;;2.65;1.35;;;17.40;57.30;;;;;;5054541;28;20013;-67
2023/01/13 10:41:16;;;;;;;3.38;2.38;;;17.40;57.20;;;;;;5055771;28;20051;-67
2023/01/13 10:44:03;;;;;;;5.65;1.90;;;17.40;57.30;;;;;;5062251;28;20029;-68
2023/01/13 10:46:32;;;;;;;2.15;1.73;;;17.50;57.10;;;;;;5061886;28;20020;-68
2023/01/13 10:49:22;;;;;;;3.30;1.63;;;17.50;57.10;;;;;;5062175;28;20029;-67
2023/01/13 10:51:48;;;;;;;4.65;2.00;;;17.50;57.00;;;;;;5048455;28;20049;-67
2023/01/13 10:54:21;;;;;;;2.60;1.75;;;17.50;57.10;;;;;;5060269;28;20028;-67
2023/01/13 10:56:48;;;;;;;3.78;2.65;;;17.50;57.00;;;;;;5076543;28;20091;-67
2023/01/13 10:59:28;;;;;;;6.28;2.15;;;17.60;57.10;;;;;;5055751;28;20020;-67
2023/01/13 11:02:16;;;;;;;3.92;1.52;;;17.50;57.00;;;;;;5059541;28;20054;-68
2023/01/13 11:04:59;;;;;;;10.73;2.60;;;17.50;57.00;;;;;;5061233;28;20039;-65
2023/01/13 11:07:56;;;;;;;3.30;1.52;;;17.60;57.00;;;;;;5062030;28;20032;-67
2023/01/13 11:10:28;;;;;;;3.22;1.83;;;17.60;56.90;;;;;;5061592;28;20542;-67
2023/01/13 11:13:12;;;;;;;2.88;2.00;;;17.60;56.80;;;;;;5054751;28;20028;-67
2023/01/13 11:15:52;;;;;;;5.95;1.70;;;17.60;56.90;;;;;;5060382;28;20013;-66
2023/01/13 11:19:00;;;;;;;2.88;1.77;;;17.60;56.80;;;;;;5060084;28;20040;-66
2023/01/13 11:21:45;;;;;;;;;;;17.60;56.80;;;;;;5032150;28;20043;-67
2023/01/13 11:24:36;;;;;;;1.70;1.52;;;17.60;56.70;;;;;;5060443;28;19915;-67
2023/01/13 11:27:32;;;;;;;2.83;1.65;;;17.60;56.70;;;;;;5061167;28;20029;-67
2023/01/13 11:30:28;;;;;;;3.08;2.05;;;17.60;56.70;;;;;;5061451;28;20087;-67
2023/01/13 11:33:03;;;;;;;3.83;1.58;;;17.60;56.70;;;;;;5061548;28;20044;-67
2023/01/13 11:35:32;;;;;;;2.25;2.03;;;17.60;56.70;;;;;;5061528;28;20071;-66
2023/01/13 11:38:11;;;;;;;1.98;1.52;;;17.70;56.80;;;;;;5061477;28;20048;-67
2023/01/13 11:40:45;;;;;;;4.20;1.48;;;17.60;56.80;;;;;;5061501;28;20075;-67
2023/01/13 11:43:32;;;;;;;3.22;1.90;;;17.60;56.80;;;;;;5061454;28;20023;-68
2023/01/13 11:46:00;;;;;;;4.03;1.60;;;17.60;56.80;;;;;;5061426;28;20336;-67
2023/01/13 11:48:34;;;;;;;4.35;1.60;;;17.60;56.70;;;;;;5061368;28;20024;-69
2023/01/13 11:51:12;;;;;;;5.70;2.08;;;17.60;56.70;;;;;;5061258;28;20246;-68
2023/01/13 11:53:53;;;;;;;3.07;1.63;;;17.70;56.80;;;;;;5061207;28;20025;-66
2023/01/13 11:56:40;;;;;;;4.15;1.92;;;17.70;56.80;;;;;;5061208;28;20271;-66
2023/01/13 11:59:23;;;;;;;2.17;1.33;;;17.70;56.80;;;;;;5061193;28;20024;-67
2023/01/13 12:02:09;;;;;;;2.25;1.70;;;17.60;56.80;;;;;;5060775;28;20328;-66
2023/01/13 12:04:46;;;;;;;3.50;1.17;;;17.60;57.00;;;;;;5061130;28;20017;-66
2023/01/13 12:07:50;;;;;;;2.22;1.40;;;17.50;57.10;;;;;;5061000;28;20036;-67
2023/01/13 12:10:42;;;;;;;7.72;2.30;;;17.50;57.20;;;;;;5059081;28;20027;-68
2023/01/13 12:13:38;;;;;;;7.90;2.13;;;17.40;57.30;;;;;;5039738;28;20045;-68
2023/01/13 12:16:22;;;;;;;5.25;2.03;;;17.40;57.40;;;;;;5060723;28;20047;-68
2023/01/13 12:19:17;;;;;;;6.82;1.75;;;17.30;57.60;;;;;;5061115;28;20044;-66
2023/01/13 12:22:07;;;;;;;2.65;1.70;;;17.30;57.50;;;;;;5060967;28;20021;-67
2023/01/13 12:24:46;;;;;;;3.10;1.75;;;17.30;57.50;;;;;;5060813;28;20324;-66
2023/01/13 12:27:19;;;;;;;5.03;1.88;;;17.40;57.60;;;;;;5059384;28;20028;-66
2023/01/13 12:29:47;;;;;;;6.35;2.22;;;17.30;57.70;;;;;;5060168;28;20052;-67
2023/01/13 12:32:26;;;;;;;7.53;1.95;;;17.30;57.70;;;;;;5060711;28;20032;-67
2023/01/13 12:35:16;;;;;;;4.55;1.67;;;17.40;57.60;;;;;;5060678;28;20017;-69
2023/01/13 12:37:55;;;;;;;3.78;1.92;;;17.40;57.40;;;;;;5060727;28;20017;-67
2023/01/13 12:40:23;;;;;;;;;;;17.40;57.30;;;;;;5055087;28;20045;-68
2023/01/13 12:45:46;;;;;;;8.70;1.90;;;17.60;57.10;;;;;;5060479;28;20028;-67
2023/01/13 12:48:51;;;;;;;5.78;1.63;;;17.60;57.00;;;;;;5060358;28;20021;-68
2023/01/13 12:51:22;;;;;;;8.00;2.10;;;17.70;57.00;;;;;;5060432;28;20017;-66
2023/01/13 12:53:48;;;;;;;7.18;1.88;;;17.70;57.00;;;;;;5060132;28;20040;-66
2023/01/13 12:56:31;;;;;;;8.82;2.13;;;17.60;56.90;;;;;;5060360;28;20228;-68
2023/01/13 12:59:16;;;;;;;7.30;2.30;;;17.70;57.00;;;;;;5055549;28;20024;-68
2023/01/13 13:01:43;;;;;;;11.60;3.00;;;17.50;56.50;;;;;;5046492;28;20024;-67
2023/01/13 13:04:16;;;;;;;10.45;3.30;;;17.60;57.00;;;;;;5051148;28;20029;-67
2023/01/13 13:06:50;;;;;;;9.35;2.33;;;17.60;57.10;;;;;;5057031;28;20044;-68
2023/01/13 13:09:24;;;;;;;8.75;2.33;;;17.70;57.00;;;;;;5060222;28;20040;-68
2023/01/13 13:14:47;;;;;;;9.85;2.38;;;17.70;57.00;;;;;;5062221;28;20120;-67
2023/01/13 13:17:19;;;;;;;12.30;2.65;;;17.70;57.00;;;;;;5055783;28;20083;-66
2023/01/13 13:19:47;;;;;;;19.75;3.22;;;17.70;57.00;;;;;;5063819;28;20080;-66
2023/01/13 13:22:13;;;;;;;9.15;3.00;;;17.70;57.00;;;;;;5062545;28;20488;-68
2023/01/13 13:25:03;;;;;;;7.47;2.05;;;17.70;57.10;;;;;;5063699;28;20093;-66
2023/01/13 13:27:41;;;;;;;12.00;2.63;;;17.70;57.10;;;;;;5035880;28;20033;-67
2023/01/13 13:30:16;;;;;;;5.05;2.03;;;17.60;57.30;;;;;;5043545;28;20108;-67
2023/01/13 13:32:57;;;;;;;9.88;2.28;;;17.60;57.20;;;;;;5045284;28;20025;-67
2023/01/13 13:35:39;;;;;;;11.50;1.85;;;17.60;57.20;;;;;;5043308;28;20221;-67
2023/01/13 13:47:04;;;;;;;6.13;2.42;;;17.50;57.30;;;;;;5063160;28;20263;-68
2023/01/13 13:49:41;;;;;;;9.02;3.10;;;17.50;57.50;;;;;;5061754;28;20025;-66
2023/01/13 13:52:34;;;;;;;9.38;2.38;;;17.40;57.50;;;;;;5063153;28;20013;-67
2023/01/13 13:55:17;;;;;;;6.60;2.20;;;17.40;57.60;;;;;;5063288;28;20045;-66
2023/01/13 13:57:52;;;;;;;10.32;2.40;;;17.40;57.60;;;;;;5063274;28;20020;-68
2023/01/13 14:00:24;;;;;;;6.18;2.72;;;17.50;57.60;;;;;;5061846;28;20033;-66
2023/01/13 14:02:57;;;;;;;13.30;3.08;;;17.50;57.50;;;;;;5061680;28;20055;-68